createdAt,value
2023-12-20T00:01:35.760Z,9.60
2023-12-20T00:03:42.133Z,9.60
2023-12-20T00:05:45.051Z,9.60
2023-12-20T00:07:47.128Z,9.60
2023-12-20T00:09:49.140Z,9.60
2023-12-20T00:11:50.986Z,9.60
2023-12-20T00:13:52.995Z,9.60
2023-12-20T00:15:54.814Z,9.70
2023-12-20T00:17:56.705Z,9.70
2023-12-20T00:19:58.641Z,9.70
2023-12-20T00:22:01.095Z,9.70
2023-12-20T00:24:02.928Z,9.70
2023-12-20T00:26:04.761Z,9.70
2023-12-20T00:28:07.292Z,9.70
2023-12-20T00:30:09.605Z,9.80
2023-12-20T00:32:11.365Z,9.80
2023-12-20T00:34:13.273Z,9.80
2023-12-20T00:36:15.076Z,9.80
2023-12-20T00:38:16.827Z,9.80
2023-12-20T00:40:18.698Z,9.80
2023-12-20T00:42:20.506Z,9.80
2023-12-20T00:44:22.194Z,9.80
2023-12-20T00:46:24.002Z,9.80
2023-12-20T00:48:28.002Z,9.80
2023-12-20T00:50:30.574Z,9.80
2023-12-20T00:52:32.528Z,9.80
2023-12-20T00:54:34.270Z,9.80
2023-12-20T00:56:36.365Z,9.80
2023-12-20T00:58:38.071Z,9.80
2023-12-20T01:00:42.357Z,9.80
2023-12-20T01:02:47.688Z,9.80
2023-12-20T01:04:49.413Z,9.80
2023-12-20T01:06:51.206Z,9.80
2023-12-20T01:08:52.965Z,9.80
2023-12-20T01:10:54.702Z,9.80
2023-12-20T01:12:56.455Z,9.80
2023-12-20T01:14:59.638Z,9.70
2023-12-20T01:17:01.443Z,9.80
2023-12-20T01:19:03.310Z,9.80
2023-12-20T01:21:05.332Z,9.80
2023-12-20T01:23:07.298Z,9.80
2023-12-20T01:25:09.287Z,9.80
2023-12-20T01:27:11.197Z,9.80
2023-12-20T01:29:14.133Z,9.80
2023-12-20T01:31:15.975Z,9.80
2023-12-20T01:33:17.772Z,9.80
2023-12-20T01:35:19.756Z,9.80
2023-12-20T01:37:21.799Z,9.80
2023-12-20T01:39:28.154Z,9.90
2023-12-20T01:41:31.833Z,9.80
2023-12-20T01:43:41.118Z,9.80
2023-12-20T01:45:49.682Z,9.80
2023-12-20T01:47:51.710Z,9.80
2023-12-20T01:49:53.701Z,9.80
2023-12-20T01:51:55.708Z,9.80
2023-12-20T01:53:58.760Z,9.80
2023-12-20T01:56:01.175Z,9.80
2023-12-20T01:58:03.625Z,9.80
2023-12-20T02:00:05.856Z,9.80
2023-12-20T02:02:08.701Z,9.80
2023-12-20T02:04:10.529Z,9.80
2023-12-20T02:06:12.564Z,9.80
2023-12-20T02:08:14.504Z,9.70
2023-12-20T02:10:17.176Z,9.70
2023-12-20T02:12:19.738Z,9.70
2023-12-20T02:14:21.538Z,9.70
2023-12-20T02:16:23.572Z,9.70
2023-12-20T02:18:25.767Z,9.70
2023-12-20T02:20:27.528Z,9.70
2023-12-20T02:22:29.285Z,9.70
2023-12-20T02:24:30.974Z,9.70
2023-12-20T02:26:35.792Z,9.70
2023-12-20T02:28:37.563Z,9.70
2023-12-20T02:30:41.897Z,9.70
2023-12-20T02:32:43.666Z,9.60
2023-12-20T02:34:45.654Z,9.70
2023-12-20T02:36:47.478Z,9.70
2023-12-20T02:38:49.215Z,9.70
2023-12-20T02:40:50.951Z,9.60
2023-12-20T02:42:52.747Z,9.60
2023-12-20T02:44:54.469Z,9.60
2023-12-20T02:46:56.214Z,9.60
2023-12-20T02:48:58.039Z,9.60
2023-12-20T02:51:00.105Z,9.60
2023-12-20T02:53:01.874Z,9.60
2023-12-20T02:55:03.679Z,9.60
2023-12-20T02:57:05.391Z,9.60
2023-12-20T02:59:09.319Z,9.60
2023-12-20T03:01:11.146Z,9.60
2023-12-20T03:03:12.865Z,9.60
2023-12-20T03:05:14.684Z,9.60
2023-12-20T03:07:16.571Z,9.60
2023-12-20T03:09:18.309Z,9.60
2023-12-20T03:11:20.022Z,9.60
2023-12-20T03:13:21.909Z,9.60
2023-12-20T03:15:23.721Z,9.60
2023-12-20T03:17:25.549Z,9.60
2023-12-20T03:19:27.363Z,9.60
2023-12-20T03:21:29.166Z,9.60
2023-12-20T03:23:31.714Z,9.60
2023-12-20T03:25:33.547Z,9.50
2023-12-20T03:27:35.285Z,9.60
2023-12-20T03:29:37.068Z,9.50
2023-12-20T03:31:38.832Z,9.50
2023-12-20T03:33:40.851Z,9.50
2023-12-20T03:35:42.573Z,9.50
2023-12-20T03:37:44.632Z,9.50
2023-12-20T03:39:46.516Z,9.50
2023-12-20T03:41:48.270Z,9.50
2023-12-20T03:43:49.948Z,9.50
2023-12-20T03:45:51.737Z,9.50
2023-12-20T03:47:57.763Z,9.50
2023-12-20T03:49:59.686Z,9.50
2023-12-20T03:52:01.546Z,9.50
2023-12-20T03:54:03.316Z,9.50
2023-12-20T03:56:05.811Z,9.50
2023-12-20T03:58:07.564Z,9.50
2023-12-20T04:00:13.393Z,9.50
2023-12-20T04:02:15.149Z,9.50
2023-12-20T04:04:16.899Z,9.50
2023-12-20T04:06:19.356Z,9.50
2023-12-20T04:08:21.240Z,9.50
2023-12-20T04:10:22.988Z,9.50
2023-12-20T04:12:24.701Z,9.50
2023-12-20T04:14:26.451Z,9.50
2023-12-20T04:16:28.187Z,9.50
2023-12-20T04:18:30.087Z,9.50
2023-12-20T04:20:31.863Z,9.50
2023-12-20T04:22:33.565Z,9.50
2023-12-20T04:24:35.337Z,9.50
2023-12-20T04:26:37.244Z,9.50
2023-12-20T04:28:38.940Z,9.50
2023-12-20T04:30:40.711Z,9.50
2023-12-20T04:32:42.533Z,9.50
2023-12-20T04:34:44.266Z,9.50
2023-12-20T04:36:46.294Z,9.50
2023-12-20T04:38:48.013Z,9.60
2023-12-20T04:40:49.801Z,9.60
2023-12-20T04:42:51.528Z,9.60
2023-12-20T04:44:53.282Z,9.60
2023-12-20T04:46:55.077Z,9.60
2023-12-20T04:48:56.904Z,9.60
2023-12-20T04:50:58.656Z,9.60
2023-12-20T04:53:01.001Z,9.60
2023-12-20T04:55:02.773Z,9.60
2023-12-20T04:57:04.867Z,9.60
2023-12-20T04:59:06.871Z,9.60
2023-12-20T05:01:09.434Z,9.60
2023-12-20T05:03:11.315Z,9.60
2023-12-20T05:05:13.534Z,9.60
2023-12-20T05:07:15.355Z,9.60
2023-12-20T05:09:17.366Z,9.60
2023-12-20T05:11:19.130Z,9.60
2023-12-20T05:13:20.877Z,9.70
2023-12-20T05:15:22.615Z,9.60
2023-12-20T05:17:24.364Z,9.70
2023-12-20T05:19:26.345Z,9.70
2023-12-20T05:21:28.241Z,9.70
2023-12-20T05:23:29.957Z,9.70
2023-12-20T05:25:31.774Z,9.70
2023-12-20T05:27:33.492Z,9.70
2023-12-20T05:29:35.213Z,9.70
2023-12-20T05:31:37.049Z,9.80
2023-12-20T05:33:38.996Z,9.70
2023-12-20T05:35:40.817Z,9.80
2023-12-20T05:37:43.046Z,9.80
2023-12-20T05:39:44.934Z,9.80
2023-12-20T05:41:46.642Z,9.80
2023-12-20T05:43:48.409Z,9.90
2023-12-20T05:45:50.193Z,9.90
2023-12-20T05:47:52.065Z,9.90
2023-12-20T05:49:54.163Z,9.90
2023-12-20T05:51:55.903Z,9.90
2023-12-20T05:53:57.655Z,9.90
2023-12-20T05:55:59.439Z,10.00
2023-12-20T05:58:02.520Z,10.00
2023-12-20T06:00:04.847Z,10.00
2023-12-20T06:02:13.979Z,10.00
2023-12-20T06:04:15.839Z,10.00
2023-12-20T06:06:18.822Z,10.10
2023-12-20T06:08:20.715Z,10.10
2023-12-20T06:10:23.245Z,10.10
2023-12-20T06:12:27.612Z,10.10
2023-12-20T06:14:29.304Z,10.10
2023-12-20T06:16:31.258Z,10.10
2023-12-20T06:18:33.068Z,10.10
2023-12-20T06:20:34.848Z,10.10
2023-12-20T06:22:37.471Z,10.10
2023-12-20T06:24:39.253Z,10.10
2023-12-20T06:26:41.029Z,10.20
2023-12-20T06:28:42.796Z,10.10
2023-12-20T06:30:44.843Z,10.20
2023-12-20T06:32:50.078Z,10.20
2023-12-20T06:34:54.950Z,10.20
2023-12-20T06:36:56.771Z,10.20
2023-12-20T06:38:59.083Z,10.20
2023-12-20T06:41:01.030Z,10.20
2023-12-20T06:43:09.127Z,10.20
2023-12-20T06:45:18.007Z,10.20
2023-12-20T06:47:19.702Z,10.20
2023-12-20T06:49:21.522Z,10.20
2023-12-20T06:51:26.488Z,10.20
2023-12-20T06:53:28.227Z,10.20
2023-12-20T06:55:30.742Z,10.20
2023-12-20T06:57:32.546Z,10.30
2023-12-20T06:59:34.262Z,10.30
2023-12-20T07:01:36.111Z,10.20
2023-12-20T07:03:41.314Z,10.30
2023-12-20T07:05:43.160Z,10.30
2023-12-20T07:07:45.124Z,10.30
2023-12-20T07:09:47.060Z,10.30
2023-12-20T07:11:49.073Z,10.30
2023-12-20T07:14:22.194Z,10.30
2023-12-20T07:16:26.180Z,10.20
2023-12-20T07:18:28.159Z,10.20
2023-12-20T07:20:29.983Z,10.20
2023-12-20T07:22:34.507Z,10.20
2023-12-20T07:24:36.322Z,10.20
2023-12-20T07:26:39.192Z,10.20
2023-12-20T07:28:41.824Z,10.20
2023-12-20T07:30:43.828Z,10.20
2023-12-20T07:32:45.752Z,10.20
2023-12-20T07:34:47.728Z,10.20
2023-12-20T07:36:49.720Z,10.20
2023-12-20T07:38:51.730Z,10.10
2023-12-20T07:40:53.470Z,10.20
2023-12-20T07:42:55.250Z,10.20
2023-12-20T07:44:57.126Z,10.10
2023-12-20T07:46:59.139Z,10.20
2023-12-20T07:49:01.048Z,10.10
2023-12-20T07:51:03.268Z,10.10
2023-12-20T07:53:05.238Z,10.10
2023-12-20T07:55:07.374Z,10.10
2023-12-20T07:57:09.189Z,10.10
2023-12-20T07:59:18.961Z,10.00
2023-12-20T08:01:27.583Z,10.00
2023-12-20T08:03:29.482Z,10.00
2023-12-20T08:05:31.399Z,10.00
2023-12-20T08:07:33.337Z,10.00
2023-12-20T08:09:37.863Z,10.00
2023-12-20T08:11:39.676Z,10.00
2023-12-20T08:13:41.426Z,10.00
2023-12-20T08:15:43.410Z,10.00
2023-12-20T08:17:45.656Z,10.00
2023-12-20T08:19:47.713Z,10.00
2023-12-20T08:21:49.590Z,10.00
2023-12-20T08:23:51.480Z,10.00
2023-12-20T08:25:53.254Z,9.90
2023-12-20T08:27:55.076Z,10.00
2023-12-20T08:29:56.830Z,10.00
2023-12-20T08:31:58.744Z,10.00
2023-12-20T08:34:00.707Z,10.00
2023-12-20T08:36:06.380Z,10.00
2023-12-20T08:38:08.318Z,10.00
2023-12-20T08:40:10.448Z,10.00
2023-12-20T08:42:12.363Z,10.00
2023-12-20T08:44:14.401Z,10.00
2023-12-20T08:46:16.659Z,10.00
2023-12-20T08:48:18.512Z,10.10
2023-12-20T08:50:20.521Z,10.00
2023-12-20T08:52:22.564Z,10.00
2023-12-20T08:54:24.323Z,10.00
2023-12-20T08:56:26.087Z,10.00
2023-12-20T08:58:28.134Z,10.00
2023-12-20T09:00:30.960Z,10.00
2023-12-20T09:02:32.788Z,10.00
2023-12-20T09:04:34.729Z,10.00
2023-12-20T09:06:36.578Z,10.00
2023-12-20T09:08:38.435Z,10.00
2023-12-20T09:10:40.284Z,10.00
2023-12-20T09:12:43.895Z,10.00
2023-12-20T09:14:45.956Z,10.00
2023-12-20T09:16:47.777Z,10.00
2023-12-20T09:18:49.773Z,10.00
2023-12-20T09:20:51.725Z,10.00
2023-12-20T09:22:53.574Z,10.00
2023-12-20T09:24:55.295Z,10.00
2023-12-20T09:26:57.123Z,10.00
2023-12-20T09:28:58.988Z,10.10
2023-12-20T09:31:00.890Z,10.10
2023-12-20T09:33:03.006Z,10.10
2023-12-20T09:35:06.971Z,10.10
2023-12-20T09:37:09.178Z,10.10
2023-12-20T09:39:11.050Z,10.10
2023-12-20T09:41:12.860Z,10.10
2023-12-20T09:43:19.816Z,10.10
2023-12-20T09:45:24.783Z,10.10
2023-12-20T09:47:27.113Z,10.10
2023-12-20T09:49:29.157Z,10.10
2023-12-20T09:51:31.159Z,10.10
2023-12-20T09:53:35.148Z,10.10
2023-12-20T09:55:37.103Z,10.10
2023-12-20T09:57:38.863Z,10.10
2023-12-20T09:59:41.321Z,10.10
2023-12-20T10:01:44.472Z,10.10
2023-12-20T10:03:46.399Z,10.00
2023-12-20T10:05:50.702Z,10.10
2023-12-20T10:07:52.957Z,10.10
2023-12-20T10:09:55.547Z,10.10
2023-12-20T10:11:58.425Z,10.20
2023-12-20T10:14:01.499Z,10.10
2023-12-20T10:16:03.846Z,10.10
2023-12-20T10:18:06.300Z,10.20
2023-12-20T10:20:11.218Z,10.20
2023-12-20T10:22:13.354Z,10.20
2023-12-20T10:24:18.994Z,10.20
2023-12-20T10:26:22.296Z,10.20
2023-12-20T10:28:31.407Z,10.20
2023-12-20T10:30:33.256Z,10.20
2023-12-20T10:32:35.195Z,10.20
2023-12-20T10:34:37.168Z,10.20
2023-12-20T10:36:39.385Z,10.30
2023-12-20T10:38:43.510Z,10.30
2023-12-20T10:40:46.544Z,10.30
2023-12-20T10:42:48.501Z,10.30
2023-12-20T10:44:51.408Z,10.30
2023-12-20T10:46:59.100Z,10.30
2023-12-20T10:49:03.651Z,10.30
2023-12-20T10:51:06.032Z,10.30
2023-12-20T10:53:07.991Z,10.30
2023-12-20T10:55:10.322Z,10.30
2023-12-20T10:57:12.561Z,10.30
2023-12-20T10:59:18.190Z,10.30
2023-12-20T11:01:21.498Z,10.30
2023-12-20T11:03:26.144Z,10.30
2023-12-20T11:05:30.793Z,10.40
2023-12-20T11:07:51.083Z,10.40
2023-12-20T11:10:16.440Z,10.40
2023-12-20T11:12:21.270Z,10.40
2023-12-20T11:14:34.175Z,10.40
2023-12-20T11:16:45.479Z,10.40
2023-12-20T11:18:54.219Z,10.40
2023-12-20T11:20:55.972Z,10.40
2023-12-20T11:22:58.801Z,10.40
2023-12-20T11:25:04.501Z,10.40
2023-12-20T11:27:06.312Z,10.40
2023-12-20T11:29:26.891Z,10.40
2023-12-20T11:31:28.663Z,10.40
2023-12-20T11:33:31.282Z,10.40
2023-12-20T11:35:33.165Z,10.40
2023-12-20T11:37:38.844Z,10.40
2023-12-20T11:39:40.740Z,10.40
2023-12-20T11:41:45.657Z,10.30
2023-12-20T11:43:47.646Z,10.40
2023-12-20T11:45:51.730Z,10.40
2023-12-20T11:47:56.604Z,10.40
2023-12-20T11:49:58.561Z,10.40
2023-12-20T11:52:01.588Z,10.40
2023-12-20T11:54:03.583Z,10.40
2023-12-20T11:56:07.306Z,10.40
2023-12-20T11:58:10.454Z,10.40
2023-12-20T12:00:12.524Z,10.40
2023-12-20T12:02:14.963Z,10.30
2023-12-20T12:04:18.660Z,10.30
2023-12-20T12:06:20.600Z,10.30
2023-12-20T12:08:22.419Z,10.30
2023-12-20T12:10:24.266Z,10.30
2023-12-20T12:12:30.588Z,10.30
2023-12-20T12:14:32.298Z,10.30
2023-12-20T12:16:34.445Z,10.20
2023-12-20T12:18:36.655Z,10.20
2023-12-20T12:20:38.943Z,10.20
2023-12-20T12:22:41.083Z,10.20
2023-12-20T12:24:46.407Z,10.20
2023-12-20T12:26:52.352Z,10.20
2023-12-20T12:28:54.115Z,10.20
2023-12-20T12:30:59.800Z,10.30
2023-12-20T12:33:02.180Z,10.20
2023-12-20T12:35:10.709Z,10.20
2023-12-20T12:37:13.749Z,10.20
2023-12-20T12:39:18.904Z,10.20
2023-12-20T12:41:20.651Z,10.20
2023-12-20T12:43:24.087Z,10.30
2023-12-20T12:45:28.026Z,10.30
2023-12-20T12:47:29.915Z,10.30
2023-12-20T12:49:31.850Z,10.30
2023-12-20T12:51:33.595Z,10.30
2023-12-20T12:53:35.410Z,10.30
2023-12-20T12:55:37.758Z,10.30
2023-12-20T12:57:39.615Z,10.30
2023-12-20T12:59:41.711Z,10.30
2023-12-20T13:01:43.691Z,10.30
2023-12-20T13:03:45.783Z,10.30
2023-12-20T13:05:48.805Z,10.30
2023-12-20T13:07:51.096Z,10.30
2023-12-20T13:09:53.129Z,10.30
2023-12-20T13:11:56.011Z,10.30
2023-12-20T13:13:58.793Z,10.20
2023-12-20T13:16:02.161Z,10.20
2023-12-20T13:18:05.835Z,10.20
2023-12-20T13:20:08.101Z,10.20
2023-12-20T13:22:09.975Z,10.20
2023-12-20T13:24:11.863Z,10.20
2023-12-20T13:26:13.744Z,10.20
2023-12-20T13:28:15.646Z,10.20
2023-12-20T13:30:18.387Z,10.20
2023-12-20T13:32:21.242Z,10.20
2023-12-20T13:34:23.376Z,10.20
2023-12-20T13:36:25.168Z,10.30
2023-12-20T13:38:26.976Z,10.30
2023-12-20T13:40:29.894Z,10.20
2023-12-20T13:42:31.766Z,10.30
2023-12-20T13:44:33.681Z,10.30
2023-12-20T13:46:35.454Z,10.30
2023-12-20T13:48:37.227Z,10.30
2023-12-20T13:50:39.110Z,10.30
2023-12-20T13:52:41.013Z,10.30
2023-12-20T13:54:42.896Z,10.30
2023-12-20T13:56:52.569Z,10.30
2023-12-20T13:59:04.671Z,10.30
2023-12-20T14:01:06.550Z,10.30
2023-12-20T14:03:08.603Z,10.30
2023-12-20T14:05:11.494Z,10.30
2023-12-20T14:07:13.821Z,10.20
2023-12-20T14:09:15.734Z,10.20
2023-12-20T14:11:17.557Z,10.20
2023-12-20T14:13:19.393Z,10.20
2023-12-20T14:15:21.224Z,10.10
2023-12-20T14:17:23.434Z,10.10
2023-12-20T14:19:25.283Z,10.10
2023-12-20T14:21:27.174Z,10.10
2023-12-20T14:23:28.929Z,10.10
2023-12-20T14:25:33.827Z,10.10
2023-12-20T14:27:41.546Z,10.00
2023-12-20T14:29:43.407Z,10.00
2023-12-20T14:31:45.305Z,10.00
2023-12-20T14:33:47.356Z,10.00
2023-12-20T14:35:49.299Z,10.00
2023-12-20T14:37:51.569Z,10.00
2023-12-20T14:39:53.484Z,10.00
2023-12-20T14:41:55.596Z,10.00
2023-12-20T14:43:57.492Z,10.00
2023-12-20T14:45:59.432Z,10.00
2023-12-20T14:48:01.576Z,10.00
2023-12-20T14:50:04.041Z,10.00
2023-12-20T14:52:06.201Z,10.00
2023-12-20T14:54:11.572Z,10.00
2023-12-20T14:56:13.574Z,10.00
2023-12-20T14:58:16.722Z,10.00
2023-12-20T15:00:19.012Z,10.00
2023-12-20T15:02:20.899Z,10.00
2023-12-20T15:04:29.533Z,10.00
2023-12-20T15:06:33.009Z,10.00
2023-12-20T15:08:34.969Z,10.00
2023-12-20T15:10:37.208Z,10.00
2023-12-20T15:12:39.071Z,10.00
2023-12-20T15:14:41.135Z,10.00
2023-12-20T15:16:43.049Z,10.00
2023-12-20T15:18:44.813Z,10.00
2023-12-20T15:20:46.852Z,10.00
2023-12-20T15:22:48.704Z,10.00
2023-12-20T15:24:52.322Z,10.00
2023-12-20T15:26:54.619Z,10.00
2023-12-20T15:28:57.422Z,10.00
2023-12-20T15:30:59.336Z,10.00
2023-12-20T15:33:03.327Z,10.00
2023-12-20T15:35:06.938Z,10.00
2023-12-20T15:37:08.958Z,10.00
2023-12-20T15:39:10.867Z,10.00
2023-12-20T15:41:22.481Z,10.00
2023-12-20T15:43:24.402Z,10.00
2023-12-20T15:45:26.287Z,10.00
2023-12-20T15:47:28.631Z,10.00
2023-12-20T15:49:30.562Z,10.00
2023-12-20T15:51:32.577Z,10.00
2023-12-20T15:53:34.419Z,10.00
2023-12-20T15:55:36.343Z,10.00
2023-12-20T15:57:45.722Z,10.00
2023-12-20T15:59:54.106Z,10.00
2023-12-20T16:01:56.030Z,10.00
2023-12-20T16:03:59.686Z,9.90
2023-12-20T16:06:02.119Z,10.00
2023-12-20T16:08:04.483Z,9.90
2023-12-20T16:10:06.537Z,9.90
2023-12-20T16:12:08.488Z,10.00
2023-12-20T16:14:14.236Z,9.90
2023-12-20T16:16:16.184Z,10.00
2023-12-20T16:18:18.058Z,9.90
2023-12-20T16:20:19.949Z,9.90
2023-12-20T16:22:22.037Z,9.90
2023-12-20T16:24:23.882Z,9.90
2023-12-20T16:26:25.880Z,9.90
2023-12-20T16:28:27.815Z,9.90
2023-12-20T16:30:29.732Z,9.90
2023-12-20T16:32:31.623Z,10.00
2023-12-20T16:34:34.055Z,9.90
2023-12-20T16:36:51.857Z,10.00
2023-12-20T16:38:53.669Z,10.00
2023-12-20T16:40:56.206Z,10.00
2023-12-20T16:42:58.289Z,10.00
2023-12-20T16:45:00.374Z,9.90
2023-12-20T16:47:02.233Z,10.00
2023-12-20T16:49:04.061Z,10.00
2023-12-20T16:51:05.966Z,9.90
2023-12-20T16:53:07.807Z,10.00
2023-12-20T16:55:10.235Z,10.00
2023-12-20T16:57:12.060Z,10.00
2023-12-20T16:59:13.929Z,10.00
2023-12-20T17:01:16.822Z,10.00
2023-12-20T17:03:21.093Z,10.00
2023-12-20T17:05:23.113Z,10.00
2023-12-20T17:07:24.944Z,10.00
2023-12-20T17:09:29.974Z,10.10
2023-12-20T17:11:33.212Z,10.00
2023-12-20T17:13:35.194Z,10.00
2023-12-20T17:15:36.995Z,10.00
2023-12-20T17:17:39.041Z,10.00
2023-12-20T17:19:42.625Z,10.00
2023-12-20T17:21:44.705Z,10.00
2023-12-20T17:23:46.637Z,10.00
2023-12-20T17:25:48.431Z,10.00
2023-12-20T17:27:50.418Z,10.00
2023-12-20T17:29:52.262Z,10.00
2023-12-20T17:31:54.199Z,10.00
2023-12-20T17:33:56.177Z,10.00
2023-12-20T17:35:58.106Z,10.00
2023-12-20T17:37:59.991Z,10.00
2023-12-20T17:40:01.915Z,10.00
2023-12-20T17:42:04.102Z,10.00
2023-12-20T17:44:06.245Z,10.00
2023-12-20T17:46:08.086Z,10.00
2023-12-20T17:48:09.998Z,10.00
2023-12-20T17:50:11.941Z,10.00
2023-12-20T17:52:13.910Z,10.00
2023-12-20T17:54:15.765Z,10.00
2023-12-20T17:56:18.286Z,10.00
2023-12-20T17:58:21.621Z,10.00
2023-12-20T18:00:28.791Z,10.00
2023-12-20T18:02:30.592Z,10.00
2023-12-20T18:04:32.510Z,10.00
2023-12-20T18:06:34.426Z,10.00
2023-12-20T18:08:37.090Z,10.10
2023-12-20T18:10:39.057Z,10.00
2023-12-20T18:12:41.002Z,10.10
2023-12-20T18:14:44.933Z,10.10
2023-12-20T18:16:46.914Z,10.10
2023-12-20T18:18:49.151Z,10.10
2023-12-20T18:20:51.641Z,10.00
2023-12-20T18:22:53.563Z,10.00
2023-12-20T18:24:56.913Z,10.00
2023-12-20T18:26:58.732Z,10.00
2023-12-20T18:29:00.551Z,10.00
2023-12-20T18:31:02.452Z,10.10
2023-12-20T18:33:04.578Z,10.00
2023-12-20T18:35:06.571Z,10.00
2023-12-20T18:37:12.018Z,10.00
2023-12-20T18:39:13.883Z,10.00
2023-12-20T18:41:15.786Z,10.00
2023-12-20T18:43:17.703Z,10.00
2023-12-20T18:45:19.519Z,10.00
2023-12-20T18:47:21.341Z,10.00
2023-12-20T18:49:23.273Z,10.10
2023-12-20T18:51:25.215Z,10.10
2023-12-20T18:53:27.299Z,10.10
2023-12-20T18:55:29.139Z,10.10
2023-12-20T18:57:30.944Z,10.10
2023-12-20T18:59:32.699Z,10.10
2023-12-20T19:01:34.596Z,10.10
2023-12-20T19:03:36.477Z,10.10
2023-12-20T19:05:38.502Z,10.20
2023-12-20T19:07:40.384Z,10.20
2023-12-20T19:09:42.233Z,10.20
2023-12-20T19:11:43.996Z,10.20
2023-12-20T19:13:45.887Z,10.20
2023-12-20T19:15:48.391Z,10.20
2023-12-20T19:17:51.755Z,10.20
2023-12-20T19:19:53.695Z,10.20
2023-12-20T19:21:55.717Z,10.20
2023-12-20T19:23:57.480Z,10.20
2023-12-20T19:26:00.218Z,10.20
2023-12-20T19:28:02.149Z,10.20
2023-12-20T19:30:04.296Z,10.20
2023-12-20T19:32:06.328Z,10.20
2023-12-20T19:34:08.246Z,10.20
2023-12-20T19:36:13.659Z,10.20
2023-12-20T19:38:17.060Z,10.20
2023-12-20T19:40:19.212Z,10.20
2023-12-20T19:42:21.141Z,10.20
2023-12-20T19:44:23.015Z,10.20
2023-12-20T19:46:25.378Z,10.20
2023-12-20T19:48:27.667Z,10.10
2023-12-20T19:50:29.595Z,10.20
2023-12-20T19:52:31.542Z,10.20
2023-12-20T19:54:33.576Z,10.20
2023-12-20T19:56:35.397Z,10.20
2023-12-20T19:58:37.387Z,10.20
2023-12-20T20:00:46.217Z,10.20
2023-12-20T20:02:55.133Z,10.20
2023-12-20T20:04:57.130Z,10.20
2023-12-20T20:06:59.053Z,10.20
2023-12-20T20:09:01.087Z,10.20
2023-12-20T20:11:02.872Z,10.20
2023-12-20T20:13:04.806Z,10.20
2023-12-20T20:15:07.042Z,10.20
2023-12-20T20:17:10.284Z,10.20
2023-12-20T20:19:12.393Z,10.20
2023-12-20T20:21:14.273Z,10.20
2023-12-20T20:23:16.115Z,10.20
2023-12-20T20:25:17.952Z,10.20
2023-12-20T20:27:22.861Z,10.20
2023-12-20T20:29:24.715Z,10.20
2023-12-20T20:31:28.677Z,10.20
2023-12-20T20:33:30.737Z,10.20
2023-12-20T20:35:32.628Z,10.20
2023-12-20T20:37:34.571Z,10.20
2023-12-20T20:39:37.038Z,10.20
2023-12-20T20:41:38.942Z,10.20
2023-12-20T20:43:43.060Z,10.20
2023-12-20T20:45:46.645Z,10.20
2023-12-20T20:48:10.897Z,10.20
2023-12-20T20:50:24.108Z,10.20
2023-12-20T20:52:26.077Z,10.20
2023-12-20T20:54:27.864Z,10.20
2023-12-20T20:56:29.769Z,10.20
2023-12-20T20:58:31.939Z,10.20
2023-12-20T21:00:33.969Z,10.20
2023-12-20T21:02:35.999Z,10.20
2023-12-20T21:04:37.902Z,10.20
2023-12-20T21:06:39.832Z,10.10
2023-12-20T21:08:44.660Z,10.20
2023-12-20T21:11:00.527Z,10.10
2023-12-20T21:13:02.659Z,10.10
2023-12-20T21:15:05.306Z,10.10
2023-12-20T21:17:07.219Z,10.10
2023-12-20T21:19:09.262Z,10.10
2023-12-20T21:21:11.599Z,10.10
2023-12-20T21:23:13.456Z,10.10
2023-12-20T21:25:15.350Z,10.10
2023-12-20T21:27:17.202Z,10.10
2023-12-20T21:29:19.021Z,10.10
2023-12-20T21:31:20.923Z,10.10
2023-12-20T21:33:22.900Z,10.10
2023-12-20T21:35:24.878Z,10.10
2023-12-20T21:37:26.782Z,10.10
2023-12-20T21:39:30.522Z,10.10
2023-12-20T21:41:32.522Z,10.10
2023-12-20T21:43:37.601Z,10.10
2023-12-20T21:45:39.569Z,10.10
2023-12-20T21:47:43.932Z,10.10
2023-12-20T21:49:46.974Z,10.10
2023-12-20T21:51:48.828Z,10.10
2023-12-20T21:53:50.661Z,10.10
2023-12-20T21:55:52.636Z,10.10
2023-12-20T21:57:54.571Z,10.10
2023-12-20T21:59:56.473Z,10.00
2023-12-20T22:01:58.470Z,10.00
2023-12-20T22:04:00.434Z,10.00
2023-12-20T22:06:02.797Z,10.00
2023-12-20T22:08:13.597Z,10.00
2023-12-20T22:10:15.810Z,10.00
2023-12-20T22:12:17.660Z,10.00
2023-12-20T22:14:19.574Z,10.00
2023-12-20T22:16:22.595Z,10.00
2023-12-20T22:18:30.566Z,10.00
2023-12-20T22:20:32.685Z,9.90
2023-12-20T22:22:34.645Z,9.90
2023-12-20T22:24:36.609Z,9.90
2023-12-20T22:26:38.645Z,9.90
2023-12-20T22:28:40.538Z,9.90
2023-12-20T22:30:42.423Z,9.90
2023-12-20T22:32:44.362Z,9.90
2023-12-20T22:34:46.197Z,9.90
2023-12-20T22:36:48.071Z,9.90
2023-12-20T22:38:50.740Z,9.80
2023-12-20T22:40:52.553Z,9.80
2023-12-20T22:42:54.654Z,9.80
2023-12-20T22:44:56.623Z,9.80
2023-12-20T22:46:58.491Z,9.90
2023-12-20T22:49:00.347Z,9.80
2023-12-20T22:51:02.175Z,9.80
2023-12-20T22:53:04.033Z,9.90
2023-12-20T22:55:07.127Z,9.80
2023-12-20T22:57:09.896Z,9.80
2023-12-20T22:59:14.365Z,9.80
2023-12-20T23:01:17.614Z,9.80
2023-12-20T23:03:19.417Z,9.80
2023-12-20T23:05:21.449Z,9.80
2023-12-20T23:07:23.350Z,9.80
2023-12-20T23:09:25.209Z,9.80
2023-12-20T23:11:26.931Z,9.80
2023-12-20T23:13:28.747Z,9.80
2023-12-20T23:15:30.574Z,9.80
2023-12-20T23:17:32.450Z,9.80
2023-12-20T23:19:34.505Z,9.90
2023-12-20T23:21:36.364Z,9.80
2023-12-20T23:23:38.049Z,9.80
2023-12-20T23:25:39.876Z,9.90
2023-12-20T23:27:44.320Z,9.80
2023-12-20T23:29:46.278Z,9.80
2023-12-20T23:31:48.051Z,9.80
2023-12-20T23:33:49.902Z,9.80
2023-12-20T23:35:51.810Z,9.90
2023-12-20T23:37:53.570Z,9.80
2023-12-20T23:39:55.325Z,9.80
2023-12-20T23:41:57.100Z,9.80
2023-12-20T23:43:58.843Z,9.90
2023-12-20T23:46:00.572Z,9.90
2023-12-20T23:48:02.411Z,9.90
2023-12-20T23:50:04.828Z,9.90
2023-12-20T23:52:06.708Z,9.90
2023-12-20T23:54:08.442Z,9.90
2023-12-20T23:56:12.018Z,9.90
2023-12-20T23:58:15.365Z,9.90
